createdAt,value
2019-02-27T00:00:22.443Z,99.99
2019-02-27T00:01:22.345Z,99.43
2019-02-27T00:02:22.878Z,99.24
2019-02-27T00:03:22.145Z,98.30
2019-02-27T00:04:22.055Z,97.73
2019-02-27T00:05:21.938Z,97.30
2019-02-27T00:06:21.841Z,96.88
2019-02-27T00:07:21.742Z,96.83
2019-02-27T00:08:21.638Z,96.45
2019-02-27T00:09:21.656Z,96.73
2019-02-27T00:10:21.436Z,96.92
2019-02-27T00:11:21.338Z,96.55
2019-02-27T00:12:21.237Z,96.17
2019-02-27T00:13:24.717Z,94.27
2019-02-27T00:14:21.051Z,95.12
2019-02-27T00:15:20.932Z,94.93
2019-02-27T00:16:20.972Z,93.61
2019-02-27T00:17:20.731Z,93.70
2019-02-27T00:18:23.773Z,96.64
2019-02-27T00:19:20.545Z,99.52
2019-02-27T00:20:20.437Z,99.99
2019-02-27T00:21:20.335Z,99.99
2019-02-27T00:22:20.230Z,99.99
2019-02-27T00:23:23.857Z,99.99
2019-02-27T00:24:20.043Z,99.43
2019-02-27T00:25:19.927Z,97.87
2019-02-27T00:26:19.828Z,95.69
2019-02-27T00:27:19.725Z,93.61
2019-02-27T00:28:23.104Z,93.84
2019-02-27T00:29:19.539Z,94.60
2019-02-27T00:30:19.529Z,95.84
2019-02-27T00:31:19.321Z,95.88
2019-02-27T00:32:19.275Z,94.42
2019-02-27T00:33:19.133Z,91.95
2019-02-27T00:34:19.042Z,91.19
2019-02-27T00:35:18.923Z,89.96
2019-02-27T00:36:18.947Z,89.96
2019-02-27T00:37:19.486Z,89.96
2019-02-27T00:38:18.620Z,89.11
2019-02-27T00:39:18.535Z,89.67
2019-02-27T00:40:18.430Z,89.96
2019-02-27T00:41:18.314Z,91.95
2019-02-27T00:42:20.678Z,94.04
2019-02-27T00:43:18.114Z,94.56
2019-02-27T00:44:18.031Z,93.80
2019-02-27T00:45:17.913Z,92.47
2019-02-27T00:46:17.826Z,92.57
2019-02-27T00:47:20.205Z,92.28
2019-02-27T00:48:17.613Z,91.95
2019-02-27T00:49:17.526Z,91.19
2019-02-27T00:50:17.419Z,91.38
2019-02-27T00:51:17.311Z,91.66
2019-02-27T00:52:18.336Z,92.14
2019-02-27T00:53:17.111Z,92.33
2019-02-27T00:54:17.023Z,94.74
2019-02-27T00:55:16.906Z,94.93
2019-02-27T00:56:16.804Z,95.22
2019-02-27T00:57:20.559Z,96.07
2019-02-27T00:58:16.607Z,95.69
2019-02-27T00:59:16.523Z,95.88
2019-02-27T01:00:16.409Z,96.45
2019-02-27T01:01:16.305Z,96.73
2019-02-27T01:02:19.931Z,96.92
2019-02-27T01:03:16.099Z,96.64
2019-02-27T01:04:16.017Z,96.07
2019-02-27T01:05:15.906Z,95.98
2019-02-27T01:06:15.800Z,95.79
2019-02-27T01:07:20.386Z,95.98
2019-02-27T01:08:15.600Z,94.84
2019-02-27T01:09:15.526Z,93.80
2019-02-27T01:10:15.398Z,92.99
2019-02-27T01:11:18.189Z,92.99
2019-02-27T01:12:15.196Z,92.61
2019-02-27T01:13:15.098Z,92.61
2019-02-27T01:14:15.011Z,93.18
2019-02-27T01:15:14.892Z,92.52
2019-02-27T01:16:16.995Z,93.46
2019-02-27T01:17:14.693Z,94.70
2019-02-27T01:18:14.608Z,94.84
2019-02-27T01:19:14.510Z,94.74
2019-02-27T01:20:14.387Z,94.08
2019-02-27T01:21:14.289Z,94.46
2019-02-27T01:22:14.190Z,97.02
2019-02-27T01:23:14.085Z,96.92
2019-02-27T01:24:14.993Z,98.35
2019-02-27T01:25:13.889Z,99.99
2019-02-27T01:26:13.786Z,99.39
2019-02-27T01:27:13.684Z,98.11
2019-02-27T01:28:13.583Z,98.11
2019-02-27T01:29:15.736Z,98.49
2019-02-27T01:30:13.401Z,99.71
2019-02-27T01:31:13.283Z,99.99
2019-02-27T01:32:13.193Z,99.99
2019-02-27T01:33:13.079Z,99.99
2019-02-27T01:34:12.980Z,99.99
2019-02-27T01:35:17.453Z,99.99
2019-02-27T01:36:12.779Z,99.99
2019-02-27T01:37:12.676Z,99.99
2019-02-27T01:38:12.574Z,99.99
2019-02-27T01:39:12.653Z,99.99
2019-02-27T01:40:17.157Z,99.99
2019-02-27T01:41:12.273Z,99.99
2019-02-27T01:42:12.173Z,99.99
2019-02-27T01:43:12.070Z,99.99
2019-02-27T01:44:13.690Z,99.33
2019-02-27T01:45:11.884Z,99.99
2019-02-27T01:46:11.774Z,99.99
2019-02-27T01:47:11.667Z,99.99
2019-02-27T01:48:11.572Z,99.90
2019-02-27T01:49:15.918Z,98.86
2019-02-27T01:50:11.380Z,98.49
2019-02-27T01:51:11.266Z,98.49
2019-02-27T01:52:11.160Z,98.20
2019-02-27T01:53:11.162Z,98.01
2019-02-27T01:54:12.212Z,96.78
2019-02-27T01:55:10.878Z,97.25
2019-02-27T01:56:10.768Z,97.40
2019-02-27T01:57:10.662Z,98.58
2019-02-27T01:58:10.565Z,99.99
2019-02-27T01:59:10.455Z,99.99
2019-02-27T02:00:10.481Z,99.99
2019-02-27T02:01:10.254Z,99.99
2019-02-27T02:02:10.151Z,99.99
2019-02-27T02:03:11.140Z,99.99
2019-02-27T02:04:09.952Z,99.99
2019-02-27T02:05:09.864Z,99.99
2019-02-27T02:06:09.748Z,99.99
2019-02-27T02:07:09.666Z,99.99
2019-02-27T02:08:13.627Z,99.52
2019-02-27T02:09:09.445Z,99.62
2019-02-27T02:10:09.362Z,99.99
2019-02-27T02:11:09.242Z,99.99
2019-02-27T02:12:09.141Z,99.99
2019-02-27T02:13:09.039Z,99.99
2019-02-27T02:14:08.941Z,99.99
2019-02-27T02:15:08.858Z,98.44
2019-02-27T02:16:08.741Z,97.30
2019-02-27T02:17:08.638Z,97.21
2019-02-27T02:18:08.537Z,96.17
2019-02-27T02:19:08.435Z,95.60
2019-02-27T02:20:08.349Z,94.89
2019-02-27T02:21:08.230Z,94.60
2019-02-27T02:22:08.860Z,94.04
2019-02-27T02:23:08.031Z,95.55
2019-02-27T02:24:07.935Z,97.11
2019-02-27T02:25:07.859Z,98.16
2019-02-27T02:26:07.727Z,97.87
2019-02-27T02:27:08.133Z,98.16
2019-02-27T02:28:07.527Z,97.68
2019-02-27T02:29:07.422Z,98.06
2019-02-27T02:30:07.343Z,98.25
2019-02-27T02:31:07.220Z,99.10
2019-02-27T02:32:07.118Z,98.06
2019-02-27T02:33:07.025Z,98.16
2019-02-27T02:34:06.922Z,97.21
2019-02-27T02:35:06.833Z,97.11
2019-02-27T02:36:06.716Z,96.55
2019-02-27T02:37:06.927Z,95.50
2019-02-27T02:38:12.117Z,95.84
2019-02-27T02:39:06.417Z,95.74
2019-02-27T02:40:06.327Z,95.45
2019-02-27T02:41:08.397Z,95.93
2019-02-27T02:42:06.112Z,97.21
2019-02-27T02:43:06.013Z,97.02
2019-02-27T02:44:05.909Z,97.87
2019-02-27T02:45:05.825Z,98.25
2019-02-27T02:46:08.799Z,98.63
2019-02-27T02:47:05.605Z,99.10
2019-02-27T02:48:05.503Z,97.97
2019-02-27T02:49:07.885Z,98.82
2019-02-27T02:50:05.426Z,97.87
2019-02-27T02:51:05.204Z,98.06
2019-02-27T02:52:05.873Z,97.78
2019-02-27T02:53:04.997Z,97.87
2019-02-27T02:54:04.902Z,97.21
2019-02-27T02:55:04.818Z,96.55
2019-02-27T02:56:04.694Z,96.22
2019-02-27T02:57:05.077Z,95.45
2019-02-27T02:58:07.886Z,94.70
2019-02-27T02:59:04.391Z,94.79
2019-02-27T03:00:04.309Z,94.89
2019-02-27T03:01:04.191Z,93.65
2019-02-27T03:02:04.096Z,95.07
2019-02-27T03:03:03.993Z,95.07
2019-02-27T03:04:04.019Z,94.98
2019-02-27T03:05:03.805Z,95.45
2019-02-27T03:06:03.688Z,94.98
2019-02-27T03:07:07.232Z,95.17
2019-02-27T03:08:03.484Z,95.07
2019-02-27T03:09:03.387Z,95.17
2019-02-27T03:10:07.034Z,94.70
2019-02-27T03:11:03.304Z,94.51
2019-02-27T03:12:03.088Z,94.13
2019-02-27T03:13:06.258Z,93.08
2019-02-27T03:14:02.882Z,92.90
2019-02-27T03:15:02.783Z,92.99
2019-02-27T03:16:04.606Z,93.65
2019-02-27T03:17:02.576Z,93.94
2019-02-27T03:18:02.579Z,95.84
2019-02-27T03:19:06.258Z,96.78
2019-02-27T03:20:02.288Z,98.72
2019-02-27T03:21:02.191Z,99.86
2019-02-27T03:22:03.640Z,99.99
2019-02-27T03:23:01.978Z,99.99
2019-02-27T03:24:02.005Z,99.20
2019-02-27T03:25:04.499Z,98.06
2019-02-27T03:26:01.688Z,97.40
2019-02-27T03:27:01.570Z,97.68
2019-02-27T03:28:04.684Z,97.21
2019-02-27T03:29:01.366Z,97.21
2019-02-27T03:30:01.272Z,96.92
2019-02-27T03:31:01.182Z,97.21
2019-02-27T03:32:01.534Z,96.88
2019-02-27T03:33:00.978Z,97.73
2019-02-27T03:34:08.173Z,96.88
2019-02-27T03:35:00.764Z,97.26
2019-02-27T03:36:03.355Z,96.59
2019-02-27T03:37:00.560Z,96.97
2019-02-27T03:38:00.463Z,96.59
2019-02-27T03:39:00.385Z,96.12
2019-02-27T03:40:00.370Z,96.78
2019-02-27T03:41:00.177Z,97.26
2019-02-27T03:42:00.071Z,98.77
2019-02-27T03:42:59.963Z,99.99
2019-02-27T03:43:59.858Z,99.99
2019-02-27T03:44:59.759Z,99.99
2019-02-27T03:46:02.985Z,99.99
2019-02-27T03:46:59.568Z,99.99
2019-02-27T03:47:59.453Z,99.99
2019-02-27T03:49:03.029Z,99.99
2019-02-27T03:49:59.254Z,99.99
2019-02-27T03:50:59.180Z,99.99
2019-02-27T03:52:00.642Z,99.99
2019-02-27T03:52:58.950Z,99.99
2019-02-27T03:53:58.851Z,99.99
2019-02-27T03:54:58.750Z,99.99
2019-02-27T03:55:58.660Z,99.99
2019-02-27T03:56:58.547Z,99.99
2019-02-27T03:57:58.447Z,99.99
2019-02-27T03:58:58.347Z,99.99
2019-02-27T03:59:58.249Z,99.99
2019-02-27T04:00:58.157Z,99.99
2019-02-27T04:01:58.041Z,99.99
2019-02-27T04:02:57.942Z,99.99
2019-02-27T04:03:57.840Z,99.99
2019-02-27T04:04:57.739Z,99.99
2019-02-27T04:05:57.652Z,99.99
2019-02-27T04:06:57.542Z,99.99
2019-02-27T04:07:57.437Z,99.99
2019-02-27T04:08:57.353Z,99.99
2019-02-27T04:09:57.250Z,99.99
2019-02-27T04:10:57.151Z,99.99
2019-02-27T04:11:57.039Z,99.99
2019-02-27T04:12:56.932Z,99.99
2019-02-27T04:14:03.319Z,99.99
2019-02-27T04:14:56.729Z,99.99
2019-02-27T04:15:56.643Z,99.99
2019-02-27T04:16:56.525Z,99.99
2019-02-27T04:17:56.430Z,99.99
2019-02-27T04:19:02.920Z,99.99
2019-02-27T04:19:56.221Z,99.99
2019-02-27T04:20:56.143Z,99.99
2019-02-27T04:22:00.599Z,99.99
2019-02-27T04:22:55.919Z,99.99
2019-02-27T04:23:55.819Z,99.99
2019-02-27T04:24:56.825Z,99.99
2019-02-27T04:25:55.631Z,99.99
2019-02-27T04:26:55.513Z,99.99
2019-02-27T04:27:56.264Z,99.99
2019-02-27T04:28:55.320Z,99.99
2019-02-27T04:29:55.210Z,99.99
2019-02-27T04:30:55.127Z,99.99
2019-02-27T04:31:55.017Z,99.99
2019-02-27T04:32:54.912Z,99.99
2019-02-27T04:33:59.826Z,99.99
2019-02-27T04:34:54.706Z,99.99
2019-02-27T04:35:54.622Z,99.99
2019-02-27T04:36:54.503Z,99.99
2019-02-27T04:37:54.919Z,99.99
2019-02-27T04:38:54.296Z,99.99
2019-02-27T04:39:54.195Z,99.99
2019-02-27T04:40:54.111Z,99.99
2019-02-27T04:41:53.994Z,99.99
2019-02-27T04:42:53.893Z,99.99
2019-02-27T04:43:53.793Z,99.99
2019-02-27T04:44:53.739Z,99.99
2019-02-27T04:45:53.605Z,99.99
2019-02-27T04:46:55.079Z,99.99
2019-02-27T04:47:53.508Z,99.99
2019-02-27T04:48:53.281Z,99.99
2019-02-27T04:49:53.181Z,99.99
2019-02-27T04:50:53.098Z,99.99
2019-02-27T04:51:52.979Z,99.99
2019-02-27T04:52:52.878Z,99.99
2019-02-27T04:53:52.776Z,99.99
2019-02-27T04:54:52.778Z,99.99
2019-02-27T04:55:52.582Z,99.99
2019-02-27T04:56:55.093Z,99.99
2019-02-27T04:57:52.370Z,99.99
2019-02-27T04:58:52.265Z,99.99
2019-02-27T04:59:52.234Z,99.99
2019-02-27T05:00:52.064Z,99.99
2019-02-27T05:01:52.087Z,99.99
2019-02-27T05:02:53.529Z,99.99
2019-02-27T05:03:51.759Z,99.99
2019-02-27T05:04:51.658Z,99.99
2019-02-27T05:05:51.558Z,99.99
2019-02-27T05:06:51.471Z,99.99
2019-02-27T05:07:54.049Z,99.99
2019-02-27T05:08:51.351Z,99.99
2019-02-27T05:09:51.152Z,99.99
2019-02-27T05:10:51.056Z,99.99
2019-02-27T05:11:50.961Z,99.99
2019-02-27T05:12:50.844Z,99.99
2019-02-27T05:13:54.090Z,99.99
2019-02-27T05:14:50.656Z,99.99
2019-02-27T05:15:50.647Z,99.99
2019-02-27T05:16:50.454Z,99.99
2019-02-27T05:17:50.339Z,99.99
2019-02-27T05:18:50.236Z,99.99
2019-02-27T05:19:51.986Z,99.99
2019-02-27T05:20:50.039Z,99.99
2019-02-27T05:21:52.290Z,99.99
2019-02-27T05:22:49.934Z,99.99
2019-02-27T05:23:49.731Z,99.99
2019-02-27T05:24:49.629Z,99.99
2019-02-27T05:25:49.530Z,99.99
2019-02-27T05:26:49.443Z,99.99
2019-02-27T05:27:49.326Z,99.99
2019-02-27T05:28:49.222Z,99.99
2019-02-27T05:29:49.224Z,99.99
2019-02-27T05:30:49.019Z,99.99
2019-02-27T05:31:50.230Z,99.99
2019-02-27T05:32:48.814Z,99.99
2019-02-27T05:33:48.712Z,99.99
2019-02-27T05:34:49.806Z,99.99
2019-02-27T05:35:48.513Z,99.99
2019-02-27T05:36:48.532Z,99.99
2019-02-27T05:37:48.307Z,99.99
2019-02-27T05:38:48.205Z,99.99
2019-02-27T05:39:50.942Z,99.99
2019-02-27T05:40:48.008Z,99.99
2019-02-27T05:41:47.917Z,99.99
2019-02-27T05:42:47.801Z,99.99
2019-02-27T05:43:48.604Z,99.99
2019-02-27T05:44:47.600Z,99.99
2019-02-27T05:45:47.497Z,99.99
2019-02-27T05:46:47.410Z,99.99
2019-02-27T05:47:47.292Z,99.99
2019-02-27T05:48:47.194Z,99.99
2019-02-27T05:49:47.093Z,99.99
2019-02-27T05:50:47.095Z,99.99
2019-02-27T05:51:46.903Z,99.99
2019-02-27T05:52:48.738Z,99.99
2019-02-27T05:53:46.690Z,99.99
2019-02-27T05:54:46.583Z,99.99
2019-02-27T05:55:46.484Z,99.99
2019-02-27T05:56:47.180Z,99.99
2019-02-27T05:57:46.388Z,99.99
2019-02-27T05:58:46.177Z,99.99
2019-02-27T05:59:46.076Z,99.99
2019-02-27T06:00:45.977Z,99.99
2019-02-27T06:01:45.891Z,99.99
2019-02-27T06:02:45.774Z,99.99
2019-02-27T06:03:45.671Z,99.99
2019-02-27T06:04:45.679Z,99.99
2019-02-27T06:05:49.651Z,99.99
2019-02-27T06:06:45.905Z,99.99
2019-02-27T06:07:45.266Z,99.99
2019-02-27T06:08:45.165Z,99.99
2019-02-27T06:09:45.089Z,99.99
2019-02-27T06:10:44.964Z,99.99
2019-02-27T06:11:44.879Z,99.99
2019-02-27T06:12:44.763Z,99.99
2019-02-27T06:13:47.186Z,99.99
2019-02-27T06:14:44.557Z,99.99
2019-02-27T06:15:44.458Z,99.99
2019-02-27T06:16:44.372Z,99.99
2019-02-27T06:17:48.840Z,99.99
2019-02-27T06:18:44.158Z,99.99
2019-02-27T06:19:44.051Z,99.99
2019-02-27T06:20:43.953Z,99.99
2019-02-27T06:21:43.867Z,99.99
2019-02-27T06:22:43.750Z,99.99
2019-02-27T06:23:43.647Z,99.99
2019-02-27T06:24:45.630Z,99.99
2019-02-27T06:25:43.446Z,99.99
2019-02-27T06:26:43.360Z,99.99
2019-02-27T06:27:43.238Z,99.99
2019-02-27T06:28:43.146Z,99.99
2019-02-27T06:29:43.042Z,99.99
2019-02-27T06:30:42.936Z,99.99
2019-02-27T06:31:42.854Z,99.99
2019-02-27T06:32:42.732Z,99.99
2019-02-27T06:33:44.957Z,99.99
2019-02-27T06:34:42.529Z,99.99
2019-02-27T06:35:42.428Z,99.99
2019-02-27T06:36:43.054Z,99.99
2019-02-27T06:37:42.231Z,99.99
2019-02-27T06:38:42.127Z,99.99
2019-02-27T06:39:42.025Z,99.99
2019-02-27T06:40:42.857Z,99.99
2019-02-27T06:41:41.826Z,99.99
2019-02-27T06:42:41.737Z,99.99
2019-02-27T06:43:41.624Z,99.99
2019-02-27T06:44:41.520Z,99.99
2019-02-27T06:45:45.374Z,99.99
2019-02-27T06:46:41.322Z,99.99
2019-02-27T06:47:41.232Z,99.99
2019-02-27T06:48:43.077Z,99.99
2019-02-27T06:49:41.016Z,99.99
2019-02-27T06:50:40.911Z,99.99
2019-02-27T06:51:40.812Z,99.99
2019-02-27T06:52:42.471Z,99.99
2019-02-27T06:53:40.609Z,99.99
2019-02-27T06:54:40.506Z,99.99
2019-02-27T06:55:40.409Z,99.99
2019-02-27T06:56:40.308Z,99.99
2019-02-27T06:57:41.311Z,99.99
2019-02-27T06:58:40.109Z,99.99
2019-02-27T06:59:40.007Z,99.99
2019-02-27T07:00:39.907Z,99.82
2019-02-27T07:01:39.808Z,99.49
2019-02-27T07:02:39.721Z,98.73
2019-02-27T07:03:39.608Z,97.83
2019-02-27T07:04:40.280Z,96.60
2019-02-27T07:05:39.408Z,95.94
2019-02-27T07:06:39.310Z,95.12
2019-02-27T07:07:39.225Z,94.08
2019-02-27T07:08:39.111Z,94.18
2019-02-27T07:09:39.017Z,94.37
2019-02-27T07:10:38.916Z,94.65
2019-02-27T07:11:38.820Z,94.27
2019-02-27T07:12:38.738Z,93.46
2019-02-27T07:13:38.624Z,93.08
2019-02-27T07:14:39.277Z,92.65
2019-02-27T07:15:38.429Z,91.99
2019-02-27T07:16:38.333Z,91.70
2019-02-27T07:17:38.264Z,90.84
2019-02-27T07:18:41.476Z,91.03
2019-02-27T07:19:38.040Z,92.18
2019-02-27T07:20:37.947Z,91.89
2019-02-27T07:21:37.850Z,91.80
2019-02-27T07:22:37.769Z,91.32
2019-02-27T07:23:37.663Z,90.56
2019-02-27T07:24:37.566Z,88.89
2019-02-27T07:25:42.001Z,87.27
2019-02-27T07:26:37.375Z,85.56
2019-02-27T07:27:37.294Z,84.17
2019-02-27T07:28:37.185Z,84.08
2019-02-27T07:29:37.090Z,84.84
2019-02-27T07:30:39.682Z,85.93
2019-02-27T07:31:36.900Z,85.93
2019-02-27T07:32:36.824Z,86.12
2019-02-27T07:33:38.047Z,86.12
2019-02-27T07:34:36.619Z,85.93
2019-02-27T07:35:36.529Z,85.60
2019-02-27T07:36:38.545Z,85.84
2019-02-27T07:37:36.340Z,85.17
2019-02-27T07:38:36.262Z,86.12
2019-02-27T07:39:36.157Z,85.88
2019-02-27T07:40:36.062Z,84.45
2019-02-27T07:41:35.972Z,82.07
2019-02-27T07:42:36.354Z,81.68
2019-02-27T07:43:35.801Z,81.73
2019-02-27T07:44:35.879Z,81.25
2019-02-27T07:45:35.630Z,80.49
2019-02-27T07:46:35.677Z,82.17
2019-02-27T07:47:35.449Z,81.25
2019-02-27T07:48:35.340Z,82.49
2019-02-27T07:49:35.230Z,83.54
2019-02-27T07:50:35.140Z,81.35
2019-02-27T07:51:35.049Z,80.20
2019-02-27T07:52:34.961Z,79.63
2019-02-27T07:53:34.901Z,81.06
2019-02-27T07:54:34.774Z,82.01
2019-02-27T07:55:34.687Z,83.16
2019-02-27T07:56:34.698Z,82.78
2019-02-27T07:57:34.503Z,82.92
2019-02-27T07:58:34.632Z,84.45
2019-02-27T07:59:37.979Z,83.88
2019-02-27T08:00:34.234Z,82.11
2019-02-27T08:01:43.257Z,80.01
2019-02-27T08:02:36.185Z,79.35
2019-02-27T08:03:34.083Z,76.71
2019-02-27T08:04:33.871Z,75.95
2019-02-27T08:05:33.783Z,75.66
2019-02-27T08:06:35.067Z,76.81
2019-02-27T08:07:33.594Z,74.65
2019-02-27T08:08:33.521Z,74.27
2019-02-27T08:09:33.414Z,74.55
2019-02-27T08:10:36.750Z,74.32
2019-02-27T08:11:33.237Z,75.66
2019-02-27T08:12:33.149Z,78.14
2019-02-27T08:13:33.074Z,78.33
2019-02-27T08:14:36.852Z,79.19
2019-02-27T08:15:32.879Z,79.38
2019-02-27T08:16:32.787Z,78.66
2019-02-27T08:17:32.808Z,77.42
2019-02-27T08:18:36.566Z,79.52
2019-02-27T08:19:32.520Z,79.04
2019-02-27T08:20:32.431Z,76.56
2019-02-27T08:21:32.343Z,75.54
2019-02-27T08:22:32.256Z,75.10
2019-02-27T08:23:32.916Z,76.64
2019-02-27T08:24:33.602Z,72.81
2019-02-27T08:25:31.988Z,72.91
2019-02-27T08:26:31.897Z,70.71
2019-02-27T08:27:31.808Z,72.11
2019-02-27T08:28:31.722Z,72.30
2019-02-27T08:29:31.658Z,70.14
2019-02-27T08:30:31.546Z,69.56
2019-02-27T08:31:32.119Z,69.27
2019-02-27T08:32:31.954Z,68.04
2019-02-27T08:33:31.289Z,67.30
2019-02-27T08:34:31.208Z,67.02
2019-02-27T08:35:31.106Z,65.61
2019-02-27T08:36:31.014Z,65.81
2019-02-27T08:37:30.925Z,66.76
2019-02-27T08:38:30.942Z,67.02
2019-02-27T08:39:30.766Z,68.26
2019-02-27T08:40:30.664Z,69.31
2019-02-27T08:41:31.454Z,69.41
2019-02-27T08:42:30.485Z,69.98
2019-02-27T08:43:30.643Z,69.31
2019-02-27T08:44:30.331Z,69.02
2019-02-27T08:45:30.333Z,70.56
2019-02-27T08:46:30.136Z,71.70
2019-02-27T08:47:30.051Z,72.37
2019-02-27T08:48:29.963Z,70.65
2019-02-27T08:49:31.811Z,70.11
2019-02-27T08:50:31.658Z,70.30
2019-02-27T08:51:29.840Z,65.33
2019-02-27T08:52:29.615Z,61.63
2019-02-27T08:53:29.528Z,60.13
2019-02-27T08:54:32.292Z,60.61
2019-02-27T08:55:29.348Z,60.35
2019-02-27T08:56:30.052Z,58.37
2019-02-27T08:57:29.179Z,57.31
2019-02-27T08:58:29.735Z,56.48
2019-02-27T08:59:29.025Z,55.93
2019-02-27T09:00:28.915Z,55.74
2019-02-27T09:01:28.830Z,54.61
2019-02-27T09:02:29.498Z,53.44
2019-02-27T09:03:28.656Z,53.27
2019-02-27T09:04:28.587Z,52.53
2019-02-27T09:05:28.488Z,52.05
2019-02-27T09:06:28.399Z,51.79
2019-02-27T09:07:28.331Z,51.02
2019-02-27T09:08:31.369Z,50.15
2019-02-27T09:09:28.158Z,50.05
2019-02-27T09:10:30.499Z,50.08
2019-02-27T09:11:27.965Z,50.18
2019-02-27T09:12:27.882Z,49.89
2019-02-27T09:13:27.795Z,50.01
2019-02-27T09:14:27.736Z,50.01
2019-02-27T09:15:27.625Z,50.37
2019-02-27T09:16:27.540Z,50.85
2019-02-27T09:17:27.915Z,50.37
2019-02-27T09:18:27.368Z,50.37
2019-02-27T09:19:27.301Z,50.01
2019-02-27T09:20:27.207Z,48.74
2019-02-27T09:21:27.880Z,50.10
2019-02-27T09:22:27.029Z,50.76
2019-02-27T09:23:26.943Z,53.23
2019-02-27T09:24:26.875Z,53.32
2019-02-27T09:25:26.778Z,53.30
2019-02-27T09:26:26.690Z,52.46
2019-02-27T09:27:26.607Z,52.08
2019-02-27T09:28:26.524Z,52.68
2019-02-27T09:29:26.458Z,52.42
2019-02-27T09:30:29.379Z,52.06
2019-02-27T09:31:26.267Z,51.19
2019-02-27T09:32:26.184Z,52.25
2019-02-27T09:33:26.104Z,53.02
2019-02-27T09:34:26.861Z,52.06
2019-02-27T09:35:25.934Z,52.54
2019-02-27T09:36:25.850Z,53.14
2019-02-27T09:37:25.765Z,52.08
2019-02-27T09:38:25.680Z,51.50
2019-02-27T09:39:30.668Z,52.11
2019-02-27T09:40:25.513Z,51.60
2019-02-27T09:41:25.431Z,52.27
2019-02-27T09:42:25.345Z,52.06
2019-02-27T09:43:27.266Z,53.81
2019-02-27T09:44:25.197Z,52.69
2019-02-27T09:45:25.095Z,54.32
2019-02-27T09:46:25.031Z,54.78
2019-02-27T09:47:25.850Z,54.58
2019-02-27T09:48:24.849Z,54.80
2019-02-27T09:49:24.780Z,56.35
2019-02-27T09:50:24.679Z,56.87
2019-02-27T09:51:24.600Z,57.64
2019-02-27T09:52:24.513Z,57.98
2019-02-27T09:53:24.432Z,57.34
2019-02-27T09:54:24.474Z,55.54
2019-02-27T09:55:24.268Z,55.82
2019-02-27T09:56:26.044Z,55.60
2019-02-27T09:57:24.104Z,57.92
2019-02-27T09:58:24.019Z,61.36
2019-02-27T09:59:23.951Z,61.94
2019-02-27T10:00:26.595Z,62.07
2019-02-27T10:01:23.883Z,63.12
2019-02-27T10:02:23.716Z,66.00
2019-02-27T10:03:23.607Z,64.69
2019-02-27T10:04:25.926Z,64.79
2019-02-27T10:05:23.464Z,64.98
2019-02-27T10:06:23.359Z,64.63
2019-02-27T10:07:23.279Z,63.09
2019-02-27T10:08:25.242Z,63.15
2019-02-27T10:09:23.143Z,64.05
2019-02-27T10:10:23.028Z,64.05
2019-02-27T10:11:22.946Z,64.79
2019-02-27T10:12:27.065Z,63.99
2019-02-27T10:13:22.784Z,64.05
2019-02-27T10:14:22.719Z,63.12
2019-02-27T10:15:25.244Z,60.69
2019-02-27T10:16:22.540Z,60.72
2019-02-27T10:17:22.458Z,59.59
2019-02-27T10:18:22.370Z,59.33
2019-02-27T10:19:22.291Z,59.43
2019-02-27T10:20:22.239Z,59.04
2019-02-27T10:21:22.126Z,59.14
2019-02-27T10:22:22.146Z,57.89
2019-02-27T10:23:21.961Z,58.44
2019-02-27T10:24:21.878Z,60.75
2019-02-27T10:25:21.815Z,59.78
2019-02-27T10:26:22.679Z,60.46
2019-02-27T10:27:21.635Z,60.68
2019-02-27T10:28:21.552Z,60.32
2019-02-27T10:29:21.577Z,59.91
2019-02-27T10:30:21.408Z,60.55
2019-02-27T10:31:21.315Z,61.61
2019-02-27T10:32:21.225Z,63.44
2019-02-27T10:33:21.142Z,63.60
2019-02-27T10:34:21.061Z,63.34
2019-02-27T10:35:22.880Z,62.32
2019-02-27T10:36:21.005Z,62.12
2019-02-27T10:37:20.935Z,62.60
2019-02-27T10:38:20.733Z,62.80
2019-02-27T10:39:20.650Z,63.57
2019-02-27T10:40:20.583Z,64.08
2019-02-27T10:41:20.489Z,63.21
2019-02-27T10:42:20.404Z,63.24
2019-02-27T10:43:21.146Z,63.98
2019-02-27T10:44:20.243Z,63.54
2019-02-27T10:45:20.172Z,62.41
2019-02-27T10:46:23.501Z,61.16
2019-02-27T10:47:19.993Z,61.06
2019-02-27T10:48:19.911Z,61.28
2019-02-27T10:49:21.787Z,59.38
2019-02-27T10:50:19.870Z,59.00
2019-02-27T10:51:19.666Z,58.54
2019-02-27T10:52:24.082Z,57.54
2019-02-27T10:53:19.500Z,57.38
2019-02-27T10:54:19.418Z,60.16
2019-02-27T10:55:19.352Z,62.02
2019-02-27T10:56:21.594Z,61.86
2019-02-27T10:57:19.278Z,62.31
2019-02-27T10:58:19.092Z,62.73
2019-02-27T10:59:19.678Z,61.28
2019-02-27T11:00:18.943Z,63.54
2019-02-27T11:01:18.850Z,66.24
2019-02-27T11:02:18.763Z,64.69
2019-02-27T11:03:18.686Z,63.34
2019-02-27T11:04:18.711Z,62.41
2019-02-27T11:05:18.560Z,62.05
2019-02-27T11:06:18.438Z,63.28
2019-02-27T11:07:18.358Z,62.05
2019-02-27T11:08:18.281Z,62.79
2019-02-27T11:09:18.205Z,63.57
2019-02-27T11:10:18.130Z,62.70
2019-02-27T11:11:18.032Z,63.85
2019-02-27T11:12:17.954Z,63.76
2019-02-27T11:13:17.871Z,65.20
2019-02-27T11:14:17.792Z,63.15
2019-02-27T11:15:17.724Z,64.50
2019-02-27T11:16:20.846Z,62.89
2019-02-27T11:17:17.551Z,62.38
2019-02-27T11:18:17.463Z,63.24
2019-02-27T11:19:17.383Z,62.54
2019-02-27T11:20:20.752Z,62.96
2019-02-27T11:21:17.222Z,65.75
2019-02-27T11:22:17.143Z,65.30
2019-02-27T11:23:17.055Z,64.73
2019-02-27T11:24:17.421Z,63.02
2019-02-27T11:25:16.909Z,63.02
2019-02-27T11:26:16.808Z,63.57
2019-02-27T11:27:16.897Z,63.21
2019-02-27T11:28:16.647Z,63.25
2019-02-27T11:29:16.564Z,64.79
2019-02-27T11:30:16.499Z,64.63
2019-02-27T11:31:16.402Z,63.38
2019-02-27T11:32:16.320Z,65.14
2019-02-27T11:33:25.031Z,62.93
2019-02-27T11:34:16.310Z,61.96
2019-02-27T11:35:16.089Z,61.13
2019-02-27T11:36:15.999Z,62.86
2019-02-27T11:37:16.518Z,60.38
2019-02-27T11:38:15.822Z,60.64
2019-02-27T11:39:15.743Z,62.63
2019-02-27T11:40:15.678Z,61.80
2019-02-27T11:41:15.953Z,62.57
2019-02-27T11:42:15.494Z,61.80
2019-02-27T11:43:17.187Z,61.83
2019-02-27T11:44:15.332Z,61.47
2019-02-27T11:45:15.275Z,59.42
2019-02-27T11:46:15.168Z,59.25
2019-02-27T11:47:15.086Z,58.29
2019-02-27T11:48:15.005Z,58.19
2019-02-27T11:49:14.922Z,57.90
2019-02-27T11:50:17.841Z,58.00
2019-02-27T11:51:17.527Z,58.00
2019-02-27T11:52:14.674Z,58.97
2019-02-27T11:53:14.591Z,59.06
2019-02-27T11:54:14.593Z,60.03
2019-02-27T11:55:15.013Z,58.87
2019-02-27T11:56:14.345Z,59.03
2019-02-27T11:57:14.263Z,59.42
2019-02-27T11:58:14.183Z,60.10
2019-02-27T11:59:14.100Z,60.83
2019-02-27T12:00:14.034Z,61.64
2019-02-27T12:01:13.936Z,60.58
2019-02-27T12:02:13.859Z,59.93
2019-02-27T12:03:13.778Z,58.03
2019-02-27T12:04:13.696Z,56.68
2019-02-27T12:05:13.612Z,57.09
2019-02-27T12:06:13.545Z,57.48
2019-02-27T12:07:17.202Z,57.71
2019-02-27T12:08:13.363Z,57.93
2019-02-27T12:09:13.286Z,57.64
2019-02-27T12:10:13.202Z,57.42
2019-02-27T12:11:14.170Z,57.87
2019-02-27T12:12:13.035Z,59.32
2019-02-27T12:13:12.954Z,58.75
2019-02-27T12:14:12.887Z,59.90
2019-02-27T12:15:12.795Z,58.97
2019-02-27T12:16:15.273Z,58.87
2019-02-27T12:17:12.626Z,58.12
2019-02-27T12:18:12.546Z,57.35
2019-02-27T12:19:12.467Z,56.80
2019-02-27T12:20:12.383Z,56.80
2019-02-27T12:21:12.319Z,56.05
2019-02-27T12:22:12.221Z,56.54
2019-02-27T12:23:12.134Z,55.67
2019-02-27T12:24:12.054Z,56.39
2019-02-27T12:25:11.975Z,58.22
2019-02-27T12:26:11.921Z,60.44
2019-02-27T12:27:23.218Z,59.90
2019-02-27T12:28:11.729Z,60.22
2019-02-27T12:29:11.645Z,58.84
2019-02-27T12:30:11.568Z,57.45
2019-02-27T12:31:14.237Z,57.67
2019-02-27T12:32:11.405Z,56.77
2019-02-27T12:33:11.321Z,59.06
2019-02-27T12:34:11.344Z,59.00
2019-02-27T12:35:11.477Z,59.35
2019-02-27T12:36:11.090Z,60.10
2019-02-27T12:37:23.126Z,59.32
2019-02-27T12:38:11.475Z,60.68
2019-02-27T12:39:15.260Z,60.42
2019-02-27T12:40:10.748Z,61.10
2019-02-27T12:41:10.789Z,61.16
2019-02-27T12:42:10.585Z,60.42
2019-02-27T12:43:10.507Z,59.68
2019-02-27T12:44:10.426Z,60.39
2019-02-27T12:45:10.340Z,61.48
2019-02-27T12:46:10.274Z,62.35
2019-02-27T12:47:10.178Z,62.12
2019-02-27T12:48:12.550Z,63.50
2019-02-27T12:49:10.016Z,60.32
2019-02-27T12:50:09.932Z,60.80
2019-02-27T12:51:10.753Z,62.25